Flight Track Log - Related Links

Times and Time Zones

All times are in EDT time to prevent confusion due to time zone crossing. See the JZA7907 flight status page for this flight to view local times or setup timezone preferences in your user account.

Time Position Orientation Groundspeed Altitude Reporting Facility
EDT Latitude Longitude Course Direction KTS MPH feet Rate Location/Type
Thu 08:31:11 PM 43.6000 -79.6167 180° South 160 184 2,800  Level Toronto Center
Thu 08:32:11 PM 43.5500 -79.6167 180° South 160 184 3,900 600 Climbing Toronto Center
Thu 08:33:11 PM 43.5000 -79.6333 194° South 190 219 4,000 550 Climbing Toronto Center
Thu 08:34:00 PM 43.4031 -79.9105 180° South  Level Estimated
Thu 08:34:11 PM 43.4500 -79.6500 194° South 200 230 5,000  Level Toronto Center
Thu 08:35:00 PM 43.3482 -79.9661 180° South  Level Estimated
Thu 08:35:11 PM 43.4000 -79.6500 180° South 190 219 6,300  Level Toronto Center
Thu 08:36:11 PM 43.3333 -79.6833 200° South 190 219 7,400 1,150 Climbing Toronto Center
Thu 08:37:11 PM 43.3000 -79.7000 200° South 190 219 8,600 1,150 Climbing Toronto Center
Thu 08:38:11 PM 43.2333 -79.7167 190° South 190 219 9,700 1,150 Climbing Toronto Center
Thu 08:39:11 PM 43.1833 -79.7500 206° Southwest 190 219 10,900 1,050 Climbing Toronto Center
Thu 08:40:11 PM 43.1500 -79.7667 200° South 190 219 11,800 1,000 Climbing Toronto Center
Thu 08:41:11 PM 43.0833 -79.8000 200° South 200 230 12,900 1,050 Climbing Toronto Center
Thu 08:42:11 PM 43.0333 -79.8167 194° South 200 230 13,900 1,050 Climbing Toronto Center
Thu 08:43:11 PM 43.0000 -79.8667 228° Southwest 190 219 15,000 1,000 Climbing Toronto Center
Thu 08:44:11 PM 42.9500 -79.9000 206° Southwest 190 219 15,900 500 Climbing Toronto Center
Thu 08:45:11 PM 42.9000 -79.9500 216° Southwest 210 242 16,000 50 Climbing Toronto Center
Thu 08:46:11 PM 42.8500 -80.0000 216° Southwest 230 265 16,000  Level Toronto Center
Thu 08:47:15 PM 42.7956 -80.0642 221° Southwest 244 281 16,000  Level Cleveland Center
Thu 08:48:17 PM 42.7353 -80.1172 213° Southwest 252 290 16,000  Level Cleveland Center
Thu 08:49:19 PM 42.6742 -80.1700 212° Southwest 256 295 16,000  Level Cleveland Center
Thu 08:50:21 PM 42.6033 -80.2331 213° Southwest 256 295 16,000  Level Cleveland Center
Thu 08:51:23 PM 42.5417 -80.2858 212° Southwest 258 297 16,000  Level Cleveland Center
Thu 08:52:25 PM 42.4806 -80.3394 213° Southwest 258 297 16,000  Level Cleveland Center
Thu 08:53:27 PM 42.4194 -80.3944 214° Southwest 259 298 16,000  Level Cleveland Center
Thu 08:54:29 PM 42.3586 -80.4456 212° Southwest 259 298 16,000  Level Cleveland Center
Thu 08:55:31 PM 42.2986 -80.4992 213° Southwest 257 296 16,000  Level Cleveland Center
Thu 08:56:33 PM 42.2378 -80.5497 212° Southwest 257 296 16,000  Level Cleveland Center
Thu 08:57:35 PM 42.1772 -80.6033 213° Southwest 257 296 16,000  Level Cleveland Center
Thu 08:58:37 PM 42.1061 -80.6628 212° Southwest 256 295 16,000  Level Cleveland Center
Thu 08:59:39 PM 42.0450 -80.7142 212° Southwest 256 295 16,000 -339 Level Cleveland Center
Thu 09:00:41 PM 41.9839 -80.7689 214° Southwest 258 297 15,300 -823 Descending Cleveland Center
Thu 09:01:43 PM 41.9153 -80.8250 211° Southwest 281 323 14,300 -1,029 Descending Cleveland Center
Thu 09:02:26 PM 41.8611 -80.8719 213° Southwest 291 335 13,500 -968 Descending Cleveland Center
Thu 09:02:45 PM 41.8469 -80.8836 212° Southwest 284 327 13,300 -986 Descending Cleveland Center
Thu 09:03:39 PM 41.7822 -80.9386 212° Southwest 288 331 12,300 -1,210 Descending Cleveland Center
Thu 09:04:49 PM 41.7133 -80.9989 213° Southwest 284 327 10,800 -1,438 Descending Cleveland Center
Thu 09:05:40 PM 41.6772 -81.0881 242° Southwest 268 308 9,400 -1,475 Descending Cleveland Center
Thu 09:05:50 PM 41.6764 -81.0875 154° Southeast 272 313 9,300 -393 Descending Cleveland Center
Thu 09:06:41 PM 41.6447 -81.1725 244° Southwest 260 299 9,000 -290 Descending Cleveland Center
Thu 09:06:52 PM 41.6383 -81.1869 239° Southwest 263 303 9,000  Level Cleveland Center
Thu 09:07:41 PM 41.6108 -81.2511 240° Southwest 239 275 9,000  Level Cleveland Center
Thu 09:07:54 PM 41.6061 -81.2658 247° West 248 285 9,000  Level Cleveland Center
Thu 09:08:56 PM 41.5753 -81.3417 241° Southwest 238 274 9,000  Level Cleveland Center
Thu 09:09:54 PM 41.5436 -81.4197 242° Southwest 235 270 9,000  Level Cleveland Center
Thu 09:10:59 PM 41.5117 -81.4964 241° Southwest 237 273 9,000  Level Cleveland Center
Thu 09:12:01 PM 41.4803 -81.5742 242° Southwest 237 273 9,000 -927 Level Cleveland Center
Thu 09:13:02 PM 41.4464 -81.6611 243° Southwest 242 278 7,100 -968 Descending Cleveland Center
Thu 09:14:05 PM 41.4036 -81.7303 231° Southwest 226 260 7,000 -1,016 Descending Cleveland Center
Thu 09:15:06 PM 41.3633 -81.7906 228° Southwest 222 255 5,000 -1,728 Descending Cleveland Center
Thu 09:16:10 PM 41.3336 -81.8603 240° Southwest 187 215 3,400 -1,306 Descending Cleveland Center
Thu 09:17:10 PM 41.3594 -81.8958 314° West 166 191 2,300 -1,180 Descending Cleveland Center
Thu 09:18:12 PM 41.3933 -81.8831 16° North 146 168 1,000 -1,258 Descending Cleveland Center

Login

Don't have an account? Register now (free) for customized features, flight alerts, and more!